Time;durP1;ratioP1;P1;durP2;ratioP2;P2;SDS_P1;SDS_P2;PMS_P1;PMS_P2;Temp;Humidity;BMP_temperature;BMP_pressure;BME280_temperature;BME280_humidity;BME280_pressure;Samples;Min_cycle;Max_cycle;Signal;HPM_P1;HPM_P2
2022/01/28 00:01:36;;;;;;;;;;;26.50;86.10;;;;;;5075099;28;19946;-64
2022/01/28 00:04:12;;;;;;;;;;;26.60;85.70;;;;;;5075977;28;19999;-61
2022/01/28 00:06:39;;;;;;;;;;;26.60;85.30;;;;;;5075984;28;20358;-57
2022/01/28 00:09:06;;;;;;;;;;;26.70;85.10;;;;;;5076233;28;19971;-60
2022/01/28 00:11:33;;;;;;;;;;;26.80;84.90;;;;;;5075559;28;19909;-62
2022/01/28 00:14:28;;;;;;;;;;;26.80;84.90;;;;;;5075495;28;19920;-61
2022/01/28 00:38:54;;;;;;;;;;;27.10;83.40;;;;;;5076213;28;19958;-62
2022/01/28 00:41:14;;;;;;;;;;;27.10;83.80;;;;;;5072576;28;19908;-52
2022/01/28 00:43:41;;;;;;;;;;;27.10;83.50;;;;;;5075569;28;19995;-58
2022/01/28 00:46:08;;;;;;;;;;;27.20;82.30;;;;;;5075429;28;19905;-65
2022/01/28 00:48:35;;;;;;;;;;;27.20;83.60;;;;;;5075621;28;19904;-61
2022/01/28 00:51:01;;;;;;;;;;;27.20;82.70;;;;;;5075608;28;20342;-61
2022/01/28 00:53:28;;;;;;;;;;;27.30;82.50;;;;;;5074343;28;19958;-63
2022/01/28 00:55:55;;;;;;;;;;;27.30;82.70;;;;;;5075182;28;19923;-60
2022/01/28 00:58:22;;;;;;;;;;;27.30;81.80;;;;;;5075692;28;19908;-62
2022/01/28 01:00:48;;;;;;;;;;;27.30;82.10;;;;;;5075426;28;20316;-61
2022/01/28 01:03:15;;;;;;;;;;;27.40;81.90;;;;;;5075282;28;19976;-59
2022/01/28 01:05:42;;;;;;;;;;;27.30;83.30;;;;;;5075016;28;19936;-62
2022/01/28 01:08:13;;;;;;;;;;;27.30;82.50;;;;;;5075078;28;19936;-59
2022/01/28 01:10:40;;;;;;;;;;;27.30;82.10;;;;;;5075208;28;19947;-60
2022/01/28 01:13:07;;;;;;;;;;;27.20;83.50;;;;;;5075279;28;19919;-57
2022/01/28 01:15:39;;;;;;;;;;;27.20;83.40;;;;;;5075344;28;19958;-61
2022/01/28 01:18:27;;;;;;;;;;;27.30;83.40;;;;;;5076396;28;19931;-61
2022/01/28 01:21:03;;;;;;;;;;;27.30;82.90;;;;;;5077326;28;19943;-58
2022/01/28 01:23:36;;;;;;;;;;;27.30;83.50;;;;;;5075330;28;19908;-57
2022/01/28 01:28:34;;;;;;;;;;;27.40;82.60;;;;;;5074441;28;20305;-63
2022/01/28 01:31:03;;;;;;;;;;;27.40;83.30;;;;;;5074522;28;20350;-56
2022/01/28 01:33:35;;;;;;;;;;;27.40;81.80;;;;;;5074855;28;19935;-60
2022/01/28 01:36:02;;;;;;;;;;;27.50;81.50;;;;;;5074161;28;20314;-56
2022/01/28 01:38:33;;;;;;;;;;;27.60;81.30;;;;;;5074220;28;19904;-58
2022/01/28 01:41:03;;;;;;;;;;;27.60;81.80;;;;;;5074575;28;20355;-55
2022/01/28 01:54:07;;;;;;;;;;;27.60;82.00;;;;;;5074126;28;20372;-56
2022/01/28 01:56:35;;;;;;;;;;;27.60;80.70;;;;;;5073524;28;19951;-61
2022/01/28 01:59:02;;;;;;;;;;;27.70;81.50;;;;;;5073714;28;19916;-54
2022/01/28 02:01:28;;;;;;;;;;;27.70;81.30;;;;;;5073891;28;19904;-62
2022/01/28 02:03:55;;;;;;;;;;;27.80;81.40;;;;;;5073711;28;19911;-58
2022/01/28 02:06:23;;;;;;;;;;;27.80;79.20;;;;;;5073741;28;19908;-57
2022/01/28 02:08:50;;;;;;;;;;;27.80;80.90;;;;;;5073564;28;19908;-61
2022/01/28 02:11:17;;;;;;;;;;;27.90;79.80;;;;;;5073090;28;19995;-56
2022/01/28 02:13:47;;;;;;;;;;;27.80;79.20;;;;;;5072182;28;19912;-58
2022/01/28 02:16:14;;;;;;;;;;;27.80;81.40;;;;;;5072977;28;19952;-60
2022/01/28 02:18:41;;;;;;;;;;;27.80;78.80;;;;;;5073399;28;19957;-56
2022/01/28 02:21:10;;;;;;;;;;;27.90;80.30;;;;;;5073427;28;20347;-59
2022/01/28 02:23:38;;;;;;;;;;;27.80;80.80;;;;;;5073447;28;19911;-59
2022/01/28 02:26:06;;;;;;;;;;;27.90;81.00;;;;;;5073197;28;20381;-59
2022/01/28 02:28:37;;;;;;;;;;;27.80;81.60;;;;;;5073403;28;19984;-60
2022/01/28 02:31:05;;;;;;;;;;;27.80;81.80;;;;;;5073178;28;19904;-56
2022/01/28 02:33:32;;;;;;;;;;;27.70;81.70;;;;;;5073087;28;19913;-58
2022/01/28 02:36:04;;;;;;;;;;;27.80;80.50;;;;;;5072953;28;20354;-60
2022/01/28 02:38:31;;;;;;;;;;;27.90;80.50;;;;;;5073768;28;19998;-61
2022/01/28 02:41:00;;;;;;;;;;;28.00;79.40;;;;;;5073588;28;19986;-61
2022/01/28 02:43:40;;;;;;;;;;;28.10;79.90;;;;;;5073449;28;19904;-61
2022/01/28 02:46:13;;;;;;;;;;;27.90;80.80;;;;;;5073057;28;19920;-52
2022/01/28 02:48:49;;;;;;;;;;;28.00;80.90;;;;;;5072849;28;19980;-56
2022/01/28 02:51:19;;;;;;;;;;;28.00;80.00;;;;;;5074019;28;20378;-59
2022/01/28 02:53:52;;;;;;;;;;;28.00;79.40;;;;;;5073127;28;19912;-58
2022/01/28 02:56:35;;;;;;;;;;;28.00;81.20;;;;;;5073247;28;19923;-62
2022/01/28 02:59:02;;;;;;;;;;;27.90;81.30;;;;;;5073551;28;19912;-61
2022/01/28 03:01:29;;;;;;;;;;;28.00;80.80;;;;;;5073641;28;19904;-56
2022/01/28 03:03:57;;;;;;;;;;;27.90;80.80;;;;;;5071938;28;19995;-54
2022/01/28 03:06:23;;;;;;;;;;;28.00;81.10;;;;;;5073237;28;20354;-57
2022/01/28 03:08:59;;;;;;;;;;;28.00;79.70;;;;;;5072757;28;19928;-57
2022/01/28 03:11:42;;;;;;;;;;;28.10;79.50;;;;;;5073078;28;19927;-60
2022/01/28 03:14:36;;;;;;;;;;;28.10;79.60;;;;;;5072493;28;19992;-64
2022/01/28 03:17:28;;;;;;;;;;;28.20;79.90;;;;;;5073289;28;20004;-58
2022/01/28 03:20:05;;;;;;;;;;;28.20;80.00;;;;;;5072693;28;19904;-59
2022/01/28 03:22:33;;;;;;;;;;;28.20;78.40;;;;;;5072593;28;19904;-58
2022/01/28 03:25:00;;;;;;;;;;;28.20;79.50;;;;;;5072613;28;20350;-58
2022/01/28 03:27:49;;;;;;;;;;;28.30;79.70;;;;;;5072163;28;19953;-60
2022/01/28 03:30:13;;;;;;;;;;;28.10;80.10;;;;;;5072214;28;20244;-62
2022/01/28 03:32:40;;;;;;;;;;;28.10;80.00;;;;;;5072359;28;20011;-60
2022/01/28 03:35:14;;;;;;;;;;;28.20;79.20;;;;;;5072298;28;19942;-57
2022/01/28 03:37:41;;;;;;;;;;;28.20;79.30;;;;;;5072104;28;20317;-60
2022/01/28 03:40:08;;;;;;;;;;;28.20;80.30;;;;;;5072013;28;19981;-59
2022/01/28 03:42:35;;;;;;;;;;;28.20;80.20;;;;;;5072559;28;19904;-62
2022/01/28 03:45:03;;;;;;;;;;;28.20;79.70;;;;;;5072518;28;19911;-57
2022/01/28 03:47:30;;;;;;;;;;;28.20;79.80;;;;;;5072529;28;19915;-60
2022/01/28 03:49:56;;;;;;;;;;;28.20;79.80;;;;;;5070202;28;19909;-59
2022/01/28 03:52:23;;;;;;;;;;;28.20;79.50;;;;;;5071971;28;19944;-59
2022/01/28 03:54:50;;;;;;;;;;;28.20;79.60;;;;;;5072404;28;19916;-62
2022/01/28 03:57:16;;;;;;;;;;;28.20;80.10;;;;;;5072182;28;20030;-59
2022/01/28 03:59:43;;;;;;;;;;;28.20;80.20;;;;;;5072011;28;19904;-60
2022/01/28 04:02:10;;;;;;;;;;;28.10;79.90;;;;;;5072427;28;19989;-62
2022/01/28 04:12:41;;;;;;;;;;;28.10;79.50;;;;;;5072332;28;20318;-57
2022/01/28 04:15:34;;;;;;;;;;;28.30;79.20;;;;;;5071925;28;20381;-60
2022/01/28 04:18:01;;;;;;;;;;;28.20;79.70;;;;;;5072340;28;19904;-55
2022/01/28 04:20:30;;;;;;;;;;;28.20;79.50;;;;;;5072559;28;19904;-58
2022/01/28 04:22:57;;;;;;;;;;;28.20;79.80;;;;;;5072283;28;19904;-62
2022/01/28 04:25:24;;;;;;;;;;;28.20;80.00;;;;;;5073695;28;19955;-55
2022/01/28 04:27:51;;;;;;;;;;;28.20;80.00;;;;;;5072425;28;19911;-53
2022/01/28 04:30:18;;;;;;;;;;;28.20;80.60;;;;;;5072604;28;20018;-56
2022/01/28 04:32:48;;;;;;;;;;;28.10;80.70;;;;;;5072773;28;19909;-62
2022/01/28 04:35:15;;;;;;;;;;;28.10;80.30;;;;;;5074913;28;19910;-49
2022/01/28 04:38:15;;;;;;;;;;;28.10;80.20;;;;;;5075912;28;19927;-54
2022/01/28 04:40:56;;;;;;;;;;;28.00;81.30;;;;;;5076011;28;19911;-55
2022/01/28 04:43:30;;;;;;;;;;;28.00;80.80;;;;;;5075774;28;19908;-61
2022/01/28 04:46:14;;;;;;;;;;;28.10;80.80;;;;;;5075689;28;19915;-59
2022/01/28 04:56:26;;;;;;;;;;;28.10;80.90;;;;;;5074680;28;19969;-60
2022/01/28 04:59:14;;;;;;;;;;;28.10;80.60;;;;;;5074930;28;19904;-60
2022/01/28 05:07:29;;;;;;;;;;;28.10;80.40;;;;;;5075611;28;20433;-64
2022/01/28 05:15:46;;;;;;;;;;;28.10;80.90;;;;;;5075253;28;19912;-59
2022/01/28 05:26:31;;;;;;;;;;;27.90;81.10;;;;;;5074249;28;19904;-55
2022/01/28 05:28:58;;;;;;;;;;;28.00;81.30;;;;;;5074556;28;19904;-59
2022/01/28 05:31:25;;;;;;;;;;;28.10;81.20;;;;;;5073238;28;19905;-59
2022/01/28 05:33:51;;;;;;;;;;;28.00;81.10;;;;;;5074461;28;19913;-55
2022/01/28 05:36:18;;;;;;;;;;;28.00;81.90;;;;;;5074247;28;19965;-55
2022/01/28 05:38:48;;;;;;;;;;;27.90;81.60;;;;;;5074048;28;20019;-54
2022/01/28 05:41:14;;;;;;;;;;;28.00;81.50;;;;;;5074865;28;20347;-62
2022/01/28 05:43:41;;;;;;;;;;;27.90;81.70;;;;;;5072856;28;19911;-55
2022/01/28 05:46:08;;;;;;;;;;;27.90;81.80;;;;;;5073642;28;19938;-62
2022/01/28 05:48:34;;;;;;;;;;;27.90;81.90;;;;;;5073349;28;20003;-54
2022/01/28 05:51:01;;;;;;;;;;;27.90;81.70;;;;;;5074296;28;19905;-61
2022/01/28 05:53:28;;;;;;;;;;;27.90;82.10;;;;;;5074694;28;19912;-59
2022/01/28 05:55:55;;;;;;;;;;;27.80;82.10;;;;;;5074032;28;20327;-55
2022/01/28 05:58:22;;;;;;;;;;;27.80;82.40;;;;;;5072936;28;20366;-61
2022/01/28 06:00:48;;;;;;;;;;;27.80;82.50;;;;;;5073340;28;19997;-61
2022/01/28 06:03:15;;;;;;;;;;;27.80;82.20;;;;;;5074011;28;19905;-53
2022/01/28 06:05:42;;;;;;;;;;;27.80;82.30;;;;;;5074042;28;19904;-60
2022/01/28 06:08:09;;;;;;;;;;;27.80;82.10;;;;;;5073840;28;20426;-56
2022/01/28 06:10:35;;;;;;;;;;;27.80;82.10;;;;;;5074513;28;20023;-55
2022/01/28 06:13:02;;;;;;;;;;;27.80;81.00;;;;;;5074804;28;19912;-63
2022/01/28 06:15:29;;;;;;;;;;;27.80;80.90;;;;;;5074920;28;19905;-57
2022/01/28 06:17:55;;;;;;;;;;;27.70;82.00;;;;;;5074767;28;19904;-59
2022/01/28 06:20:22;;;;;;;;;;;27.70;82.10;;;;;;5075135;28;20404;-62
2022/01/28 06:22:49;;;;;;;;;;;27.60;82.50;;;;;;5074653;28;20039;-52
2022/01/28 06:25:16;;;;;;;;;;;27.50;83.10;;;;;;5074859;28;19909;-58
2022/01/28 06:27:44;;;;;;;;;;;27.50;83.20;;;;;;5074038;28;19911;-58
2022/01/28 06:30:11;;;;;;;;;;;27.50;83.10;;;;;;5073901;28;20312;-60
2022/01/28 06:32:38;;;;;;;;;;;27.50;83.20;;;;;;5074208;28;19965;-58
2022/01/28 06:35:08;;;;;;;;;;;27.50;83.60;;;;;;5073526;28;19911;-56
2022/01/28 06:37:39;;;;;;;;;;;27.40;83.40;;;;;;5073949;28;19912;-60
2022/01/28 06:40:10;;;;;;;;;;;27.50;83.50;;;;;;5073580;28;20007;-56
2022/01/28 06:42:37;;;;;;;;;;;27.40;83.90;;;;;;5071531;28;19953;-59
2022/01/28 06:45:07;;;;;;;;;;;27.40;83.60;;;;;;5073469;28;19915;-61
2022/01/28 06:47:35;;;;;;;;;;;27.40;83.60;;;;;;5073123;28;19988;-55
2022/01/28 06:50:05;;;;;;;;;;;27.40;83.30;;;;;;5071737;28;19991;-55
2022/01/28 06:52:32;;;;;;;;;;;27.30;83.40;;;;;;5073400;28;19912;-58
2022/01/28 06:55:00;;;;;;;;;;;27.40;83.60;;;;;;5073246;28;19904;-60
2022/01/28 06:57:28;;;;;;;;;;;27.30;84.00;;;;;;5071611;28;19916;-53
2022/01/28 06:59:55;;;;;;;;;;;27.30;84.40;;;;;;5073004;28;19908;-57
2022/01/28 07:02:22;;;;;;;;;;;27.20;84.40;;;;;;5073426;28;19908;-54
2022/01/28 07:04:49;;;;;;;;;;;27.20;84.40;;;;;;5073554;28;19911;-60
2022/01/28 07:07:17;;;;;;;;;;;27.20;84.50;;;;;;5073614;28;19958;-55
2022/01/28 07:09:43;;;;;;;;;;;27.20;84.80;;;;;;5072998;28;19944;-62
2022/01/28 07:12:10;;;;;;;;;;;27.20;84.80;;;;;;5072819;28;19908;-62
2022/01/28 07:14:37;;;;;;;;;;;27.20;84.80;;;;;;5073167;28;19912;-56
2022/01/28 07:17:04;;;;;;;;;;;27.10;84.60;;;;;;5071930;28;20286;-63
2022/01/28 07:19:31;;;;;;;;;;;27.10;84.70;;;;;;5071565;28;20374;-62
2022/01/28 07:21:58;;;;;;;;;;;27.10;84.60;;;;;;5072369;28;20003;-58
2022/01/28 07:24:25;;;;;;;;;;;27.00;84.80;;;;;;5072761;28;20277;-62
2022/01/28 07:26:52;;;;;;;;;;;27.00;84.90;;;;;;5072825;28;19993;-53
2022/01/28 07:29:19;;;;;;;;;;;27.00;85.60;;;;;;5072838;28;19912;-63
2022/01/28 07:31:46;;;;;;;;;;;27.00;85.90;;;;;;5073392;28;19905;-59
2022/01/28 07:34:13;;;;;;;;;;;27.00;85.80;;;;;;5072469;28;20442;-64
2022/01/28 07:36:40;;;;;;;;;;;26.90;86.00;;;;;;5072616;28;20389;-60
2022/01/28 07:39:09;;;;;;;;;;;26.90;85.80;;;;;;5072840;28;19913;-59
2022/01/28 07:41:37;;;;;;;;;;;26.90;85.40;;;;;;5072211;28;19949;-56
2022/01/28 07:44:04;;;;;;;;;;;26.90;85.20;;;;;;5072460;28;20400;-50
2022/01/28 07:46:30;;;;;;;;;;;26.90;85.70;;;;;;5072484;28;19909;-57
2022/01/28 07:48:57;;;;;;;;;;;26.90;85.90;;;;;;5072648;28;19928;-64
2022/01/28 07:51:24;;;;;;;;;;;26.90;86.00;;;;;;5072698;28;19905;-61
2022/01/28 07:53:51;;;;;;;;;;;26.90;86.00;;;;;;5071894;28;19917;-61
2022/01/28 07:56:25;;;;;;;;;;;26.80;85.90;;;;;;5072260;28;19920;-59
2022/01/28 07:58:51;;;;;;;;;;;26.80;86.30;;;;;;5072575;28;19994;-61
2022/01/28 08:01:18;;;;;;;;;;;26.80;86.20;;;;;;5072146;28;19904;-59
2022/01/28 08:03:44;;;;;;;;;;;26.80;86.50;;;;;;5072494;28;20368;-63
2022/01/28 08:06:11;;;;;;;;;;;26.70;86.40;;;;;;5072283;28;20389;-61
2022/01/28 08:08:38;;;;;;;;;;;26.70;86.60;;;;;;5075013;28;19908;-62
2022/01/28 08:11:05;;;;;;;;;;;26.70;86.60;;;;;;5076224;28;19904;-59
2022/01/28 08:13:31;;;;;;;;;;;26.60;86.70;;;;;;5076124;28;20003;-59
2022/01/28 08:15:58;;;;;;;;;;;26.60;86.70;;;;;;5076222;28;20371;-60
2022/01/28 08:18:25;;;;;;;;;;;26.60;86.90;;;;;;5076692;28;20007;-63
2022/01/28 08:20:52;;;;;;;;;;;26.50;87.10;;;;;;5076115;28;20299;-61
2022/01/28 08:23:19;;;;;;;;;;;26.60;87.40;;;;;;5076123;28;19905;-56
2022/01/28 08:25:46;;;;;;;;;;;26.50;87.50;;;;;;5077194;28;20421;-56
2022/01/28 08:28:13;;;;;;;;;;;26.50;87.60;;;;;;5077330;28;20007;-61
2022/01/28 08:30:40;;;;;;;;;;;26.50;87.80;;;;;;5076478;28;19995;-63
2022/01/28 08:33:07;;;;;;;;;;;26.50;87.70;;;;;;5076480;28;20002;-61
2022/01/28 08:35:37;;;;;;;;;;;26.50;88.00;;;;;;5076493;28;20369;-64
2022/01/28 08:38:14;;;;;;;;;;;26.40;87.80;;;;;;5076231;28;19915;-61
2022/01/28 08:40:41;;;;;;;;;;;26.40;87.90;;;;;;5075899;28;19908;-59
2022/01/28 08:43:08;;;;;;;;;;;26.40;87.90;;;;;;5075761;28;19904;-61
2022/01/28 08:45:35;;;;;;;;;;;26.40;88.00;;;;;;5076050;28;19950;-64
2022/01/28 08:48:05;;;;;;;;;;;26.40;88.70;;;;;;5075594;28;19904;-57
2022/01/28 08:50:31;;;;;;;;;;;26.40;88.10;;;;;;5075888;28;19930;-62
2022/01/28 08:52:58;;;;;;;;;;;26.30;88.10;;;;;;5075959;28;19953;-58
2022/01/28 08:55:25;;;;;;;;;;;26.30;88.20;;;;;;5075726;28;19933;-54
2022/01/28 08:57:53;;;;;;;;;;;26.30;88.30;;;;;;5075321;28;19979;-59
2022/01/28 09:00:21;;;;;;;;;;;26.30;88.30;;;;;;5074547;28;19905;-62
2022/01/28 09:02:49;;;;;;;;;;;26.30;88.40;;;;;;5075366;28;19905;-60
2022/01/28 09:05:16;;;;;;;;;;;26.20;88.50;;;;;;5075451;28;19904;-60
2022/01/28 09:07:43;;;;;;;;;;;26.20;88.50;;;;;;5075389;28;19908;-59
2022/01/28 09:10:17;;;;;;;;;;;26.30;88.80;;;;;;5075297;28;19916;-56
2022/01/28 09:15:26;;;;;;;;;;;26.20;88.90;;;;;;5075425;28;19904;-61
2022/01/28 09:17:53;;;;;;;;;;;26.20;88.80;;;;;;5074931;28;19908;-59
2022/01/28 09:20:20;;;;;;;;;;;26.20;89.10;;;;;;5074963;28;19915;-57
2022/01/28 09:22:47;;;;;;;;;;;26.10;88.90;;;;;;5075215;28;19912;-61
2022/01/28 09:25:13;;;;;;;;;;;26.20;89.10;;;;;;5074964;28;19930;-61
2022/01/28 09:27:40;;;;;;;;;;;26.10;89.10;;;;;;5075025;28;19963;-57
2022/01/28 09:30:07;;;;;;;;;;;26.10;89.20;;;;;;5074886;28;19919;-61
2022/01/28 09:32:34;;;;;;;;;;;26.10;89.20;;;;;;5074840;28;19947;-54
2022/01/28 09:35:02;;;;;;;;;;;26.00;89.50;;;;;;5073256;28;19931;-61
2022/01/28 09:37:29;;;;;;;;;;;26.00;89.30;;;;;;5074938;28;19950;-62
2022/01/28 09:39:59;;;;;;;;;;;26.00;89.60;;;;;;5074745;28;19957;-57
2022/01/28 09:42:30;;;;;;;;;;;26.00;89.70;;;;;;5074858;28;19969;-61
2022/01/28 09:44:58;;;;;;;;;;;26.00;89.80;;;;;;5074833;28;19912;-59
2022/01/28 09:47:25;;;;;;;;;;;26.00;89.80;;;;;;5074698;28;19920;-54
2022/01/28 09:49:52;;;;;;;;;;;26.00;89.80;;;;;;5074312;28;19943;-60
2022/01/28 09:52:19;;;;;;;;;;;25.90;89.90;;;;;;5074558;28;19904;-54
2022/01/28 09:54:46;;;;;;;;;;;25.90;89.80;;;;;;5074640;28;20255;-63
2022/01/28 09:57:16;;;;;;;;;;;25.90;90.00;;;;;;5074265;28;19920;-61
2022/01/28 09:59:43;;;;;;;;;;;25.90;90.00;;;;;;5074815;28;19911;-63
2022/01/28 10:02:10;;;;;;;;;;;25.90;90.00;;;;;;5074517;28;19995;-61
2022/01/28 10:04:37;;;;;;;;;;;25.90;90.10;;;;;;5074698;28;19905;-61
2022/01/28 10:07:14;;;;;;;;;;;25.80;90.10;;;;;;5074724;28;19904;-57
2022/01/28 10:09:59;;;;;;;;;;;25.80;90.20;;;;;;5074662;28;19905;-60
2022/01/28 10:12:58;;;;;;;;;;;25.80;90.30;;;;;;5073990;28;20377;-63
2022/01/28 10:15:28;;;;;;;;;;;25.80;90.30;;;;;;5071936;28;19915;-63
2022/01/28 10:17:56;;;;;;;;;;;25.80;90.30;;;;;;5072431;28;19954;-57
2022/01/28 10:20:24;;;;;;;;;;;25.80;90.20;;;;;;5074253;28;19951;-63
2022/01/28 10:22:51;;;;;;;;;;;25.80;90.40;;;;;;5074045;28;19998;-60
2022/01/28 10:25:24;;;;;;;;;;;25.80;90.40;;;;;;5074199;28;20362;-59
2022/01/28 10:28:17;;;;;;;;;;;25.80;90.30;;;;;;5073667;28;19904;-55
2022/01/28 10:30:44;;;;;;;;;;;25.80;90.40;;;;;;5071485;28;20055;-61
2022/01/28 10:33:17;;;;;;;;;;;25.70;90.30;;;;;;5074060;28;19951;-62
2022/01/28 10:35:53;;;;;;;;;;;25.70;90.40;;;;;;5073955;28;19946;-65
2022/01/28 10:38:32;;;;;;;;;;;25.70;90.50;;;;;;5074219;28;19908;-63
2022/01/28 10:41:08;;;;;;;;;;;25.70;90.50;;;;;;5072498;28;20009;-58
2022/01/28 10:43:48;;;;;;;;;;;25.70;90.50;;;;;;5073672;28;19905;-63
2022/01/28 10:46:22;;;;;;;;;;;25.60;90.50;;;;;;5073685;28;20351;-64
2022/01/28 10:48:50;;;;;;;;;;;25.70;90.60;;;;;;5073900;28;20323;-64
2022/01/28 10:51:21;;;;;;;;;;;25.60;90.50;;;;;;5073956;28;19952;-62
2022/01/28 10:54:08;;;;;;;;;;;25.70;90.70;;;;;;5073678;28;19959;-63
2022/01/28 10:56:47;;;;;;;;;;;25.60;90.50;;;;;;5072654;28;19939;-64
2022/01/28 10:59:14;;;;;;;;;;;25.60;90.70;;;;;;5072915;28;19904;-65
2022/01/28 11:01:42;;;;;;;;;;;25.60;90.70;;;;;;5073226;28;19911;-64
2022/01/28 11:04:11;;;;;;;;;;;25.60;90.70;;;;;;5073388;28;19927;-63
2022/01/28 11:06:38;;;;;;;;;;;25.60;90.70;;;;;;5073522;28;20251;-63
2022/01/28 11:09:04;;;;;;;;;;;25.60;90.60;;;;;;5073147;28;20243;-62
2022/01/28 11:11:31;;;;;;;;;;;25.60;90.70;;;;;;5072599;28;19908;-64
2022/01/28 11:13:58;;;;;;;;;;;25.50;90.70;;;;;;5072540;28;20365;-62
2022/01/28 11:16:25;;;;;;;;;;;25.60;90.70;;;;;;5072992;28;20290;-61
2022/01/28 11:18:54;;;;;;;;;;;25.50;90.80;;;;;;5072589;28;19913;-64
2022/01/28 11:21:29;;;;;;;;;;;25.50;90.90;;;;;;5072554;28;20424;-63
2022/01/28 11:24:04;;;;;;;;;;;25.50;90.80;;;;;;5072441;28;19953;-63
2022/01/28 11:26:38;;;;;;;;;;;25.50;90.80;;;;;;5072936;28;19911;-59
2022/01/28 11:29:34;;;;;;;;;;;25.50;90.90;;;;;;5072563;28;19905;-65
2022/01/28 11:32:09;;;;;;;;;;;25.50;90.90;;;;;;5063249;28;19981;-62
2022/01/28 11:34:36;;;;;;;;;;;25.50;90.90;;;;;;5072538;28;19913;-67
2022/01/28 11:37:03;;;;;;;;;;;25.50;90.90;;;;;;5072593;28;19904;-64
2022/01/28 11:39:32;;;;;;;;;;;25.50;90.90;;;;;;5072314;28;19904;-59
2022/01/28 11:41:59;;;;;;;;;;;25.50;91.00;;;;;;5070561;28;19904;-57
2022/01/28 11:44:43;;;;;;;;;;;25.50;91.00;;;;;;5072433;28;19931;-62
2022/01/28 11:47:14;;;;;;;;;;;25.50;90.90;;;;;;5070822;28;19954;-62
2022/01/28 11:49:53;;;;;;;;;;;25.40;90.90;;;;;;5070597;28;19910;-60
2022/01/28 11:52:30;;;;;;;;;;;25.40;90.90;;;;;;5071830;28;19908;-62
2022/01/28 11:57:59;;;;;;;;;;;25.40;91.00;;;;;;5110278;27;20297;-59
2022/01/28 12:00:25;;;;;;;;;;;25.40;91.10;;;;;;5111047;28;19916;-60
2022/01/28 12:02:53;;;;;;;;;;;25.40;91.10;;;;;;5109250;28;20366;-60
2022/01/28 12:05:32;;;;;;;;;;;25.40;91.00;;;;;;5111083;28;19998;-55
2022/01/28 12:08:03;;;;;;;;;;;25.40;91.00;;;;;;5110649;28;19915;-60
2022/01/28 12:10:32;;;;;;;;;;;25.40;91.10;;;;;;5111187;28;19908;-59
2022/01/28 12:13:05;;;;;;;;;;;25.40;91.20;;;;;;5110463;28;19914;-60
2022/01/28 12:16:14;;;;;;;;;;;25.40;91.40;;;;;;5111317;28;19987;-58
2022/01/28 12:18:44;;;;;;;;;;;25.30;91.20;;;;;;5109999;27;20416;-60
2022/01/28 12:21:19;;;;;;;;;;;25.40;91.20;;;;;;5110586;28;19954;-58
2022/01/28 12:23:47;;;;;;;;;;;25.30;91.20;;;;;;5109959;28;20335;-60
2022/01/28 12:26:17;;;;;;;;;;;25.30;91.20;;;;;;5110210;28;19968;-52
2022/01/28 12:28:45;;;;;;;;;;;25.30;91.20;;;;;;5110343;28;19999;-56
2022/01/28 12:31:22;;;;;;;;;;;25.30;91.20;;;;;;5110537;28;19968;-61
2022/01/28 12:33:50;;;;;;;;;;;25.30;91.20;;;;;;5108629;28;19908;-61
2022/01/28 12:36:29;;;;;;;;;;;25.30;91.30;;;;;;5110256;28;19916;-61
2022/01/28 12:39:09;;;;;;;;;;;25.30;91.30;;;;;;5110401;28;19915;-60
2022/01/28 12:41:51;;;;;;;;;;;25.30;91.30;;;;;;5109931;28;19999;-59
2022/01/28 12:44:18;;;;;;;;;;;25.30;91.20;;;;;;5110124;28;19915;-61
2022/01/28 12:46:46;;;;;;;;;;;25.30;91.30;;;;;;5110033;28;19916;-62
2022/01/28 12:49:13;;;;;;;;;;;25.30;91.30;;;;;;5108833;28;19908;-60
2022/01/28 12:51:40;;;;;;;;;;;25.30;91.30;;;;;;5110099;28;20226;-59
2022/01/28 12:54:07;;;;;;;;;;;25.30;91.30;;;;;;5109809;28;19980;-61
2022/01/28 12:56:35;;;;;;;;;;;25.20;91.30;;;;;;5109988;28;20294;-61
2022/01/28 12:59:02;;;;;;;;;;;25.30;91.30;;;;;;5108594;28;19908;-58
2022/01/28 13:01:29;;;;;;;;;;;25.30;91.40;;;;;;5110333;28;20442;-61
2022/01/28 13:04:13;;;;;;;;;;;25.20;91.30;;;;;;5109916;28;19919;-59
2022/01/28 22:07:28;;;;;;;;;;;25.00;91.40;;;;;;3996562;28;21976;-56
2022/01/28 22:12:58;;;;;;;;;;;25.10;91.40;;;;;;5094550;28;20290;-56
2022/01/28 22:15:25;;;;;;;;;;;25.10;91.30;;;;;;5094109;28;20323;-61
2022/01/28 22:17:51;;;;;;;;;;;25.10;91.30;;;;;;5093920;28;20270;-60
2022/01/28 22:20:18;;;;;;;;;;;25.10;91.30;;;;;;5094238;28;20243;-58
2022/01/28 22:22:46;;;;;;;;;;;25.10;91.20;;;;;;5093814;28;20011;-55
2022/01/28 22:25:12;;;;;;;;;;;25.20;91.30;;;;;;5094018;28;20003;-60
2022/01/28 22:27:39;;;;;;;;;;;25.20;91.20;;;;;;5094285;28;19908;-56
2022/01/28 22:30:08;;;;;;;;;;;25.20;91.10;;;;;;5093544;28;20393;-61
2022/01/28 22:32:35;;;;;;;;;;;25.20;91.10;;;;;;5095532;28;19912;-64
2022/01/28 22:35:02;;;;;;;;;;;25.30;91.00;;;;;;5095118;28;19912;-57
2022/01/28 22:37:29;;;;;;;;;;;25.30;91.00;;;;;;5093928;28;20259;-57
2022/01/28 22:39:55;;;;;;;;;;;25.30;91.00;;;;;;5093374;28;19908;-54
2022/01/28 22:42:22;;;;;;;;;;;25.40;91.00;;;;;;5093108;28;19998;-60
2022/01/28 22:44:49;;;;;;;;;;;25.40;91.10;;;;;;5093671;28;19999;-61
2022/01/28 22:47:15;;;;;;;;;;;25.40;90.90;;;;;;5093260;28;20274;-61
2022/01/28 22:49:42;;;;;;;;;;;25.50;90.90;;;;;;5093235;28;20373;-57
2022/01/28 23:01:18;;;;;;;;;;;25.70;90.60;;;;;;5093030;28;19953;-59
2022/01/28 23:03:45;;;;;;;;;;;25.70;90.50;;;;;;5093264;28;19912;-55
2022/01/28 23:06:12;;;;;;;;;;;25.80;90.40;;;;;;5093122;28;19989;-57
2022/01/28 23:08:38;;;;;;;;;;;25.90;90.30;;;;;;5093082;28;19920;-61
2022/01/28 23:11:05;;;;;;;;;;;25.90;90.40;;;;;;5092999;28;20362;-62
2022/01/28 23:13:32;;;;;;;;;;;25.90;90.10;;;;;;5093092;28;19908;-53
2022/01/28 23:15:58;;;;;;;;;;;25.90;90.00;;;;;;5091604;28;19914;-54
2022/01/28 23:18:25;;;;;;;;;;;26.00;90.10;;;;;;5093364;28;19916;-53
2022/01/28 23:20:52;;;;;;;;;;;26.00;90.00;;;;;;5092992;28;20269;-54
2022/01/28 23:23:19;;;;;;;;;;;26.10;89.50;;;;;;5092775;28;19908;-57
2022/01/28 23:25:46;;;;;;;;;;;26.20;89.60;;;;;;5092940;28;20326;-60
2022/01/28 23:28:16;;;;;;;;;;;26.20;89.40;;;;;;5093040;28;19985;-52
2022/01/28 23:30:45;;;;;;;;;;;26.30;88.90;;;;;;5093056;28;19972;-61
2022/01/28 23:33:15;;;;;;;;;;;26.30;89.30;;;;;;5092868;28;20053;-56
2022/01/28 23:35:42;;;;;;;;;;;26.30;89.30;;;;;;5092871;28;19920;-55
2022/01/28 23:38:09;;;;;;;;;;;26.40;88.50;;;;;;5092543;28;19916;-60
2022/01/28 23:40:36;;;;;;;;;;;26.50;88.30;;;;;;5092839;28;20003;-60
2022/01/28 23:43:03;;;;;;;;;;;26.50;87.70;;;;;;5093007;28;19918;-57
2022/01/28 23:45:29;;;;;;;;;;;26.50;87.70;;;;;;5092600;28;20003;-59
2022/01/28 23:47:56;;;;;;;;;;;26.60;87.80;;;;;;5092937;28;19916;-57
2022/01/28 23:50:23;;;;;;;;;;;26.50;88.20;;;;;;5092227;28;19908;-57
2022/01/28 23:52:50;;;;;;;;;;;26.50;88.30;;;;;;5092261;28;20251;-58
2022/01/28 23:55:16;;;;;;;;;;;26.50;88.10;;;;;;5125450;27;19908;-60
2022/01/28 23:57:43;;;;;;;;;;;26.60;87.90;;;;;;5091487;28;19931;-61
